<?xml version="1.0" encoding="UTF-8" standalone="yes"?>
<gpx version="1.1" creator="MagicMaps Tour Explorer"
     xmlns:xsi="http://www.w3.org/2001/XMLSchema-instance"
     xmlns="http://www.topografix.com/GPX/1/1">
  <trk>
    <name>pirchkogel_schneetal_w</name>
    <trkseg>
      <trkpt lat="47.211596500" lon="11.011612136">
        <ele>1859.8</ele>
        <time>2016-03-14T07:55:03</time>
      </trkpt>
      <trkpt lat="47.211681828" lon="11.010961113">
        <ele>1859.8</ele>
        <time>2016-03-14T07:55:04</time>
      </trkpt>
      <trkpt lat="47.211674536" lon="11.010718625">
        <ele>1860.0</ele>
        <time>2016-03-14T07:55:36</time>
      </trkpt>
      <trkpt lat="47.211747877" lon="11.010661377">
        <ele>1868.7</ele>
        <time>2016-03-14T07:59:17</time>
      </trkpt>
      <trkpt lat="47.212437959" lon="11.010615109">
        <ele>1879.4</ele>
        <time>2016-03-14T07:59:38</time>
      </trkpt>
      <trkpt lat="47.213673703" lon="11.010642266">
        <ele>1928.1</ele>
        <time>2016-03-14T08:00:14</time>
      </trkpt>
      <trkpt lat="47.217271300" lon="11.010666238">
        <ele>2114.8</ele>
        <time>2016-03-14T08:02:04</time>
      </trkpt>
      <trkpt lat="47.223652275" lon="11.010626508">
        <ele>2364.2</ele>
        <time>2016-03-14T08:05:11</time>
      </trkpt>
      <trkpt lat="47.224387955" lon="11.010656012">
        <ele>2386.7</ele>
        <time>2016-03-14T08:05:32</time>
      </trkpt>
      <trkpt lat="47.225998705" lon="11.010639081">
        <ele>2406.6</ele>
        <time>2016-03-14T08:06:22</time>
      </trkpt>
      <trkpt lat="47.226014631" lon="11.010677051">
        <ele>2407.2</ele>
        <time>2016-03-14T08:06:42</time>
      </trkpt>
      <trkpt lat="47.226327360" lon="11.010634555">
        <ele>2419.6</ele>
        <time>2016-03-14T08:18:48</time>
      </trkpt>
      <trkpt lat="47.226758692" lon="11.010635644">
        <ele>2414.0</ele>
        <time>2016-03-14T08:18:59</time>
      </trkpt>
      <trkpt lat="47.227094388" lon="11.010705633">
        <ele>2407.9</ele>
        <time>2016-03-14T08:19:16</time>
      </trkpt>
      <trkpt lat="47.227298990" lon="11.010702197">
        <ele>2405.0</ele>
        <time>2016-03-14T08:19:28</time>
      </trkpt>
      <trkpt lat="47.227658574" lon="11.010604799">
        <ele>2402.5</ele>
        <time>2016-03-14T08:19:55</time>
      </trkpt>
      <trkpt lat="47.227837443" lon="11.010682331">
        <ele>2403.6</ele>
        <time>2016-03-14T08:20:15</time>
      </trkpt>
      <trkpt lat="47.228086889" lon="11.010528021">
        <ele>2404.2</ele>
        <time>2016-03-14T08:20:40</time>
      </trkpt>
      <trkpt lat="47.228285708" lon="11.010500444">
        <ele>2405.6</ele>
        <time>2016-03-14T08:21:00</time>
      </trkpt>
      <trkpt lat="47.228531968" lon="11.010566745">
        <ele>2410.2</ele>
        <time>2016-03-14T08:21:33</time>
      </trkpt>
      <trkpt lat="47.228922145" lon="11.010789704">
        <ele>2414.1</ele>
        <time>2016-03-14T08:22:21</time>
      </trkpt>
      <trkpt lat="47.229294050" lon="11.010730360">
        <ele>2421.7</ele>
        <time>2016-03-14T08:26:26</time>
      </trkpt>
      <trkpt lat="47.229280304" lon="11.010500696">
        <ele>2426.9</ele>
        <time>2016-03-14T08:26:52</time>
      </trkpt>
      <trkpt lat="47.229356412" lon="11.010451242">
        <ele>2429.7</ele>
        <time>2016-03-14T08:27:06</time>
      </trkpt>
      <trkpt lat="47.229533438" lon="11.010485021">
        <ele>2436.4</ele>
        <time>2016-03-14T08:27:44</time>
      </trkpt>
      <trkpt lat="47.229715493" lon="11.010459708">
        <ele>2442.6</ele>
        <time>2016-03-14T08:28:36</time>
      </trkpt>
      <trkpt lat="47.229704848" lon="11.010404136">
        <ele>2444.1</ele>
        <time>2016-03-14T08:28:59</time>
      </trkpt>
      <trkpt lat="47.229749439" lon="11.010203389">
        <ele>2446.2</ele>
        <time>2016-03-14T08:29:27</time>
      </trkpt>
      <trkpt lat="47.229925543" lon="11.010294501">
        <ele>2454.6</ele>
        <time>2016-03-14T08:30:08</time>
      </trkpt>
      <trkpt lat="47.229972314" lon="11.010203892">
        <ele>2457.3</ele>
        <time>2016-03-14T08:30:25</time>
      </trkpt>
      <trkpt lat="47.229998633" lon="11.009959392">
        <ele>2462.7</ele>
        <time>2016-03-14T08:30:52</time>
      </trkpt>
      <trkpt lat="47.230024114" lon="11.009918405">
        <ele>2463.6</ele>
        <time>2016-03-14T08:31:02</time>
      </trkpt>
      <trkpt lat="47.229975164" lon="11.009980598">
        <ele>2463.9</ele>
        <time>2016-03-14T08:31:46</time>
      </trkpt>
      <trkpt lat="47.229973823" lon="11.010000799">
        <ele>2465.0</ele>
        <time>2016-03-14T08:35:58</time>
      </trkpt>
      <trkpt lat="47.230012631" lon="11.009888230">
        <ele>2466.3</ele>
        <time>2016-03-14T08:38:11</time>
      </trkpt>
      <trkpt lat="47.229946833" lon="11.009659823">
        <ele>2467.1</ele>
        <time>2016-03-14T08:38:31</time>
      </trkpt>
      <trkpt lat="47.229992934" lon="11.009440888">
        <ele>2471.8</ele>
        <time>2016-03-14T08:38:55</time>
      </trkpt>
      <trkpt lat="47.229961669" lon="11.009078706">
        <ele>2478.9</ele>
        <time>2016-03-14T08:39:37</time>
      </trkpt>
      <trkpt lat="47.230002992" lon="11.008897573">
        <ele>2483.0</ele>
        <time>2016-03-14T08:40:03</time>
      </trkpt>
      <trkpt lat="47.229925795" lon="11.008420559">
        <ele>2493.7</ele>
        <time>2016-03-14T08:41:13</time>
      </trkpt>
      <trkpt lat="47.229973236" lon="11.007911861">
        <ele>2502.7</ele>
        <time>2016-03-14T08:42:28</time>
      </trkpt>
      <trkpt lat="47.229964100" lon="11.007773057">
        <ele>2504.4</ele>
        <time>2016-03-14T08:42:41</time>
      </trkpt>
      <trkpt lat="47.229946582" lon="11.007648250">
        <ele>2505.7</ele>
        <time>2016-03-14T08:43:17</time>
      </trkpt>
      <trkpt lat="47.229795875" lon="11.007517241">
        <ele>2510.7</ele>
        <time>2016-03-14T08:43:43</time>
      </trkpt>
      <trkpt lat="47.229766790" lon="11.007407019">
        <ele>2512.3</ele>
        <time>2016-03-14T08:43:58</time>
      </trkpt>
      <trkpt lat="47.229851447" lon="11.007323032">
        <ele>2515.1</ele>
        <time>2016-03-14T08:44:15</time>
      </trkpt>
      <trkpt lat="47.229877766" lon="11.007232843">
        <ele>2516.7</ele>
        <time>2016-03-14T08:44:27</time>
      </trkpt>
      <trkpt lat="47.229859075" lon="11.007012902">
        <ele>2520.9</ele>
        <time>2016-03-14T08:45:33</time>
      </trkpt>
      <trkpt lat="47.229989916" lon="11.006700341">
        <ele>2527.7</ele>
        <time>2016-03-14T08:46:15</time>
      </trkpt>
      <trkpt lat="47.230096534" lon="11.006341260">
        <ele>2533.6</ele>
        <time>2016-03-14T08:46:58</time>
      </trkpt>
      <trkpt lat="47.230123524" lon="11.006029285">
        <ele>2538.2</ele>
        <time>2016-03-14T08:47:35</time>
      </trkpt>
      <trkpt lat="47.230216395" lon="11.005609017">
        <ele>2547.3</ele>
        <time>2016-03-14T08:48:36</time>
      </trkpt>
      <trkpt lat="47.230352182" lon="11.005294360">
        <ele>2555.7</ele>
        <time>2016-03-14T08:49:40</time>
      </trkpt>
      <trkpt lat="47.230538260" lon="11.004929412">
        <ele>2563.4</ele>
        <time>2016-03-14T08:50:56</time>
      </trkpt>
      <trkpt lat="47.230503811" lon="11.004880797">
        <ele>2564.8</ele>
        <time>2016-03-14T08:51:57</time>
      </trkpt>
      <trkpt lat="47.230379507" lon="11.004932178">
        <ele>2566.8</ele>
        <time>2016-03-14T08:52:27</time>
      </trkpt>
      <trkpt lat="47.230111705" lon="11.004939973">
        <ele>2574.2</ele>
        <time>2016-03-14T08:53:40</time>
      </trkpt>
      <trkpt lat="47.230079435" lon="11.004914576">
        <ele>2575.9</ele>
        <time>2016-03-14T08:53:55</time>
      </trkpt>
      <trkpt lat="47.230213797" lon="11.004535966">
        <ele>2586.6</ele>
        <time>2016-03-14T08:55:04</time>
      </trkpt>
      <trkpt lat="47.230425775" lon="11.004019137">
        <ele>2598.7</ele>
        <time>2016-03-14T08:56:29</time>
      </trkpt>
      <trkpt lat="47.230478413" lon="11.003946047">
        <ele>2601.5</ele>
        <time>2016-03-14T08:56:47</time>
      </trkpt>
      <trkpt lat="47.230539350" lon="11.003944371">
        <ele>2604.7</ele>
        <time>2016-03-14T08:57:28</time>
      </trkpt>
      <trkpt lat="47.230533818" lon="11.004005391">
        <ele>2604.4</ele>
        <time>2016-03-14T08:58:00</time>
      </trkpt>
      <trkpt lat="47.230655355" lon="11.004070519">
        <ele>2607.6</ele>
        <time>2016-03-14T08:58:24</time>
      </trkpt>
      <trkpt lat="47.230703300" lon="11.004035398">
        <ele>2610.4</ele>
        <time>2016-03-14T08:58:39</time>
      </trkpt>
      <trkpt lat="47.230722914" lon="11.003855439">
        <ele>2613.0</ele>
        <time>2016-03-14T08:59:20</time>
      </trkpt>
      <trkpt lat="47.230637418" lon="11.003733147">
        <ele>2615.0</ele>
        <time>2016-03-14T08:59:43</time>
      </trkpt>
      <trkpt lat="47.230493668" lon="11.003406085">
        <ele>2622.3</ele>
        <time>2016-03-14T09:00:34</time>
      </trkpt>
      <trkpt lat="47.230305746" lon="11.003303407">
        <ele>2627.2</ele>
        <time>2016-03-14T09:01:23</time>
      </trkpt>
      <trkpt lat="47.230196446" lon="11.003328469">
        <ele>2628.5</ele>
        <time>2016-03-14T09:02:06</time>
      </trkpt>
      <trkpt lat="47.230326869" lon="11.003241967">
        <ele>2633.7</ele>
        <time>2016-03-14T09:02:54</time>
      </trkpt>
      <trkpt lat="47.230513534" lon="11.003203494">
        <ele>2637.8</ele>
        <time>2016-03-14T09:03:29</time>
      </trkpt>
      <trkpt lat="47.230769517" lon="11.003321428">
        <ele>2644.5</ele>
        <time>2016-03-14T09:04:21</time>
      </trkpt>
      <trkpt lat="47.230842188" lon="11.003322098">
        <ele>2646.2</ele>
        <time>2016-03-14T09:04:35</time>
      </trkpt>
      <trkpt lat="47.231041258" lon="11.003482612">
        <ele>2653.9</ele>
        <time>2016-03-14T09:05:31</time>
      </trkpt>
      <trkpt lat="47.231063303" lon="11.003407342">
        <ele>2656.0</ele>
        <time>2016-03-14T09:06:16</time>
      </trkpt>
      <trkpt lat="47.231194479" lon="11.003398541">
        <ele>2658.8</ele>
        <time>2016-03-14T09:06:46</time>
      </trkpt>
      <trkpt lat="47.231314927" lon="11.003317405">
        <ele>2663.5</ele>
        <time>2016-03-14T09:07:16</time>
      </trkpt>
      <trkpt lat="47.231306797" lon="11.003211122">
        <ele>2665.7</ele>
        <time>2016-03-14T09:07:28</time>
      </trkpt>
      <trkpt lat="47.231244268" lon="11.003049687">
        <ele>2669.4</ele>
        <time>2016-03-14T09:08:24</time>
      </trkpt>
      <trkpt lat="47.231219457" lon="11.002827231">
        <ele>2672.8</ele>
        <time>2016-03-14T09:08:56</time>
      </trkpt>
      <trkpt lat="47.231249465" lon="11.002800912">
        <ele>2674.2</ele>
        <time>2016-03-14T09:09:11</time>
      </trkpt>
      <trkpt lat="47.231301852" lon="11.002868135">
        <ele>2676.6</ele>
        <time>2016-03-14T09:09:23</time>
      </trkpt>
      <trkpt lat="47.231495557" lon="11.002931753">
        <ele>2683.2</ele>
        <time>2016-03-14T09:10:06</time>
      </trkpt>
      <trkpt lat="47.231640900" lon="11.002867883">
        <ele>2688.2</ele>
        <time>2016-03-14T09:10:57</time>
      </trkpt>
      <trkpt lat="47.231675601" lon="11.002766965">
        <ele>2690.0</ele>
        <time>2016-03-14T09:11:13</time>
      </trkpt>
      <trkpt lat="47.231566133" lon="11.002417188">
        <ele>2693.7</ele>
        <time>2016-03-14T09:18:47</time>
      </trkpt>
      <trkpt lat="47.231595218" lon="11.002311744">
        <ele>2696.8</ele>
        <time>2016-03-14T09:18:58</time>
      </trkpt>
      <trkpt lat="47.231676439" lon="11.002146956">
        <ele>2701.2</ele>
        <time>2016-03-14T09:19:24</time>
      </trkpt>
      <trkpt lat="47.231948515" lon="11.001864485">
        <ele>2711.9</ele>
        <time>2016-03-14T09:20:31</time>
      </trkpt>
      <trkpt lat="47.231949186" lon="11.001812015">
        <ele>2712.2</ele>
        <time>2016-03-14T09:20:49</time>
      </trkpt>
      <trkpt lat="47.231860505" lon="11.001754850">
        <ele>2715.1</ele>
        <time>2016-03-14T09:21:07</time>
      </trkpt>
      <trkpt lat="47.231807280" lon="11.001461400">
        <ele>2722.5</ele>
        <time>2016-03-14T09:21:59</time>
      </trkpt>
      <trkpt lat="47.231773250" lon="11.001423849">
        <ele>2721.5</ele>
        <time>2016-03-14T09:22:17</time>
      </trkpt>
      <trkpt lat="47.232138366" lon="11.001292588">
        <ele>2734.6</ele>
        <time>2016-03-14T09:23:37</time>
      </trkpt>
      <trkpt lat="47.232334753" lon="11.001113299">
        <ele>2742.5</ele>
        <time>2016-03-14T09:24:25</time>
      </trkpt>
      <trkpt lat="47.232452855" lon="11.001055883">
        <ele>2746.2</ele>
        <time>2016-03-14T09:24:51</time>
      </trkpt>
      <trkpt lat="47.232278679" lon="11.000877768">
        <ele>2750.3</ele>
        <time>2016-03-14T09:25:43</time>
      </trkpt>
      <trkpt lat="47.232460817" lon="11.000775257">
        <ele>2756.9</ele>
        <time>2016-03-14T09:26:26</time>
      </trkpt>
      <trkpt lat="47.232459895" lon="11.000678530">
        <ele>2760.5</ele>
        <time>2016-03-14T09:27:01</time>
      </trkpt>
      <trkpt lat="47.232429637" lon="11.000598818">
        <ele>2760.4</ele>
        <time>2016-03-14T09:27:12</time>
      </trkpt>
      <trkpt lat="47.232324695" lon="11.000459259">
        <ele>2765.0</ele>
        <time>2016-03-14T09:27:36</time>
      </trkpt>
      <trkpt lat="47.232146412" lon="11.000347445">
        <ele>2770.4</ele>
        <time>2016-03-14T09:28:09</time>
      </trkpt>
      <trkpt lat="47.232024455" lon="11.000223812">
        <ele>2773.7</ele>
        <time>2016-03-14T09:28:38</time>
      </trkpt>
      <trkpt lat="47.231927477" lon="11.000096407">
        <ele>2777.1</ele>
        <time>2016-03-14T09:29:02</time>
      </trkpt>
      <trkpt lat="47.231785571" lon="10.999779403">
        <ele>2785.4</ele>
        <time>2016-03-14T09:29:58</time>
      </trkpt>
      <trkpt lat="47.231818680" lon="10.999808488">
        <ele>2787.3</ele>
        <time>2016-03-14T09:30:19</time>
      </trkpt>
      <trkpt lat="47.232025713" lon="10.999726262">
        <ele>2793.7</ele>
        <time>2016-03-14T09:31:13</time>
      </trkpt>
      <trkpt lat="47.232129397" lon="10.999610675">
        <ele>2799.1</ele>
        <time>2016-03-14T09:31:40</time>
      </trkpt>
      <trkpt lat="47.232099976" lon="10.999518642">
        <ele>2802.7</ele>
        <time>2016-03-14T09:32:11</time>
      </trkpt>
      <trkpt lat="47.232214306" lon="10.999393752">
        <ele>2805.4</ele>
        <time>2016-03-14T09:33:34</time>
      </trkpt>
      <trkpt lat="47.232368113" lon="10.998994270">
        <ele>2814.6</ele>
        <time>2016-03-14T09:35:40</time>
      </trkpt>
      <trkpt lat="47.232296281" lon="10.999028049">
        <ele>2814.2</ele>
        <time>2016-03-14T09:36:41</time>
      </trkpt>
      <trkpt lat="47.232198296" lon="10.998978512">
        <ele>2819.5</ele>
        <time>2016-03-14T09:37:02</time>
      </trkpt>
      <trkpt lat="47.232126463" lon="10.999035342">
        <ele>2820.4</ele>
        <time>2016-03-14T09:38:00</time>
      </trkpt>
      <trkpt lat="47.232038537" lon="10.998986727">
        <ele>2822.3</ele>
        <time>2016-03-14T09:38:26</time>
      </trkpt>
      <trkpt lat="47.231990676" lon="10.999049004">
        <ele>2823.7</ele>
        <time>2016-03-14T09:49:37</time>
      </trkpt>
      <trkpt lat="47.232063012" lon="10.999126034">
        <ele>2822.6</ele>
        <time>2016-03-14T09:51:00</time>
      </trkpt>
      <trkpt lat="47.232199805" lon="10.999118993">
        <ele>2821.0</ele>
        <time>2016-03-14T09:51:58</time>
      </trkpt>
      <trkpt lat="47.232478922" lon="10.998938950">
        <ele>2817.4</ele>
        <time>2016-03-14T09:52:06</time>
      </trkpt>
      <trkpt lat="47.232551007" lon="10.998941045">
        <ele>2809.3</ele>
        <time>2016-03-14T09:55:00</time>
      </trkpt>
      <trkpt lat="47.232841607" lon="10.998734515">
        <ele>2807.8</ele>
        <time>2016-03-14T09:55:07</time>
      </trkpt>
      <trkpt lat="47.232980160" lon="10.998775335">
        <ele>2800.5</ele>
        <time>2016-03-14T09:55:15</time>
      </trkpt>
      <trkpt lat="47.233030619" lon="10.998867704">
        <ele>2796.1</ele>
        <time>2016-03-14T09:55:36</time>
      </trkpt>
      <trkpt lat="47.233011257" lon="10.998911457">
        <ele>2795.4</ele>
        <time>2016-03-14T09:58:26</time>
      </trkpt>
      <trkpt lat="47.233062303" lon="10.999072390">
        <ele>2786.5</ele>
        <time>2016-03-14T10:01:09</time>
      </trkpt>
      <trkpt lat="47.232797686" lon="10.999293672">
        <ele>2784.8</ele>
        <time>2016-03-14T10:01:28</time>
      </trkpt>
      <trkpt lat="47.232718896" lon="10.999587374">
        <ele>2780.8</ele>
        <time>2016-03-14T10:01:33</time>
      </trkpt>
      <trkpt lat="47.232835405" lon="10.999789126">
        <ele>2771.5</ele>
        <time>2016-03-14T10:01:38</time>
      </trkpt>
      <trkpt lat="47.233315604" lon="11.000390612">
        <ele>2741.3</ele>
        <time>2016-03-14T10:01:59</time>
      </trkpt>
      <trkpt lat="47.233569240" lon="11.000579959">
        <ele>2735.2</ele>
        <time>2016-03-14T10:02:03</time>
      </trkpt>
      <trkpt lat="47.233595978" lon="11.000552382">
        <ele>2730.8</ele>
        <time>2016-03-14T10:02:07</time>
      </trkpt>
      <trkpt lat="47.233575191" lon="11.000494463">
        <ele>2728.0</ele>
        <time>2016-03-14T10:02:16</time>
      </trkpt>
      <trkpt lat="47.233716426" lon="11.000186596">
        <ele>2724.9</ele>
        <time>2016-03-14T10:02:57</time>
      </trkpt>
      <trkpt lat="47.233892530" lon="10.999976713">
        <ele>2724.0</ele>
        <time>2016-03-14T10:03:01</time>
      </trkpt>
      <trkpt lat="47.234080955" lon="10.999884764">
        <ele>2717.2</ele>
        <time>2016-03-14T10:03:38</time>
      </trkpt>
      <trkpt lat="47.234256389" lon="11.000558333">
        <ele>2712.7</ele>
        <time>2016-03-14T10:03:45</time>
      </trkpt>
      <trkpt lat="47.234264603" lon="11.000947002">
        <ele>2706.2</ele>
        <time>2016-03-14T10:03:48</time>
      </trkpt>
      <trkpt lat="47.234254964" lon="11.001175325">
        <ele>2697.6</ele>
        <time>2016-03-14T10:03:51</time>
      </trkpt>
      <trkpt lat="47.234217832" lon="11.001245650">
        <ele>2675.3</ele>
        <time>2016-03-14T10:06:03</time>
      </trkpt>
      <trkpt lat="47.234193273" lon="11.001522504">
        <ele>2675.4</ele>
        <time>2016-03-14T10:06:08</time>
      </trkpt>
      <trkpt lat="47.234145747" lon="11.001702547">
        <ele>2675.2</ele>
        <time>2016-03-14T10:06:10</time>
      </trkpt>
      <trkpt lat="47.234101910" lon="11.001796005">
        <ele>2668.0</ele>
        <time>2016-03-14T10:06:16</time>
      </trkpt>
      <trkpt lat="47.234014738" lon="11.001799861">
        <ele>2665.1</ele>
        <time>2016-03-14T10:07:15</time>
      </trkpt>
      <trkpt lat="47.234051367" lon="11.001982503">
        <ele>2664.8</ele>
        <time>2016-03-14T10:07:19</time>
      </trkpt>
      <trkpt lat="47.234293604" lon="11.002570577">
        <ele>2655.2</ele>
        <time>2016-03-14T10:07:28</time>
      </trkpt>
      <trkpt lat="47.234441461" lon="11.002728157">
        <ele>2637.9</ele>
        <time>2016-03-14T10:07:36</time>
      </trkpt>
      <trkpt lat="47.234387314" lon="11.002787082">
        <ele>2630.8</ele>
        <time>2016-03-14T10:07:46</time>
      </trkpt>
      <trkpt lat="47.234448586" lon="11.002887245">
        <ele>2627.9</ele>
        <time>2016-03-14T10:07:54</time>
      </trkpt>
      <trkpt lat="47.234550258" lon="11.002874505">
        <ele>2625.4</ele>
        <time>2016-03-14T10:08:57</time>
      </trkpt>
      <trkpt lat="47.234543553" lon="11.003076844">
        <ele>2625.0</ele>
        <time>2016-03-14T10:09:00</time>
      </trkpt>
      <trkpt lat="47.234731307" lon="11.004234469">
        <ele>2618.0</ele>
        <time>2016-03-14T10:09:08</time>
      </trkpt>
      <trkpt lat="47.234873045" lon="11.004564548">
        <ele>2611.7</ele>
        <time>2016-03-14T10:09:11</time>
      </trkpt>
      <trkpt lat="47.235164819" lon="11.005086405">
        <ele>2594.4</ele>
        <time>2016-03-14T10:09:21</time>
      </trkpt>
      <trkpt lat="47.235344276" lon="11.005292600">
        <ele>2589.7</ele>
        <time>2016-03-14T10:09:26</time>
      </trkpt>
      <trkpt lat="47.235658262" lon="11.006332040">
        <ele>2574.4</ele>
        <time>2016-03-14T10:09:44</time>
      </trkpt>
      <trkpt lat="47.235776866" lon="11.006475454">
        <ele>2571.1</ele>
        <time>2016-03-14T10:09:49</time>
      </trkpt>
      <trkpt lat="47.236787220" lon="11.006744094">
        <ele>2540.8</ele>
        <time>2016-03-14T10:10:02</time>
      </trkpt>
      <trkpt lat="47.236931976" lon="11.006839313">
        <ele>2531.9</ele>
        <time>2016-03-14T10:10:05</time>
      </trkpt>
      <trkpt lat="47.237057202" lon="11.007017512">
        <ele>2518.7</ele>
        <time>2016-03-14T10:10:09</time>
      </trkpt>
      <trkpt lat="47.237028787" lon="11.007184060">
        <ele>2502.0</ele>
        <time>2016-03-14T10:10:18</time>
      </trkpt>
      <trkpt lat="47.237136746" lon="11.007226473">
        <ele>2498.6</ele>
        <time>2016-03-14T10:10:23</time>
      </trkpt>
      <trkpt lat="47.237200448" lon="11.007318003">
        <ele>2494.5</ele>
        <time>2016-03-14T10:10:28</time>
      </trkpt>
      <trkpt lat="47.237197934" lon="11.007428309">
        <ele>2490.9</ele>
        <time>2016-03-14T10:11:22</time>
      </trkpt>
      <trkpt lat="47.237361548" lon="11.007597037">
        <ele>2484.1</ele>
        <time>2016-03-14T10:11:31</time>
      </trkpt>
      <trkpt lat="47.237568246" lon="11.007570131">
        <ele>2480.4</ele>
        <time>2016-03-14T10:11:36</time>
      </trkpt>
      <trkpt lat="47.238029586" lon="11.007423112">
        <ele>2463.3</ele>
        <time>2016-03-14T10:11:45</time>
      </trkpt>
      <trkpt lat="47.238227399" lon="11.007415568">
        <ele>2450.9</ele>
        <time>2016-03-14T10:11:49</time>
      </trkpt>
      <trkpt lat="47.238395372" lon="11.007322697">
        <ele>2431.0</ele>
        <time>2016-03-14T10:11:58</time>
      </trkpt>
      <trkpt lat="47.238421775" lon="11.007253379">
        <ele>2423.2</ele>
        <time>2016-03-14T10:12:07</time>
      </trkpt>
      <trkpt lat="47.238399312" lon="11.007185820">
        <ele>2419.7</ele>
        <time>2016-03-14T10:12:17</time>
      </trkpt>
      <trkpt lat="47.238816563" lon="11.006905027">
        <ele>2407.5</ele>
        <time>2016-03-14T10:12:28</time>
      </trkpt>
      <trkpt lat="47.239144212" lon="11.006748537">
        <ele>2393.6</ele>
        <time>2016-03-14T10:12:34</time>
      </trkpt>
      <trkpt lat="47.239357028" lon="11.006604452">
        <ele>2378.6</ele>
        <time>2016-03-14T10:12:39</time>
      </trkpt>
      <trkpt lat="47.239449983" lon="11.006589280">
        <ele>2373.5</ele>
        <time>2016-03-14T10:12:41</time>
      </trkpt>
      <trkpt lat="47.239499353" lon="11.006509652">
        <ele>2356.2</ele>
        <time>2016-03-14T10:13:28</time>
      </trkpt>
      <trkpt lat="47.239790205" lon="11.006436478">
        <ele>2350.5</ele>
        <time>2016-03-14T10:13:39</time>
      </trkpt>
      <trkpt lat="47.239845358" lon="11.006463384">
        <ele>2347.1</ele>
        <time>2016-03-14T10:13:41</time>
      </trkpt>
      <trkpt lat="47.239858266" lon="11.006429270">
        <ele>2342.8</ele>
        <time>2016-03-14T10:13:43</time>
      </trkpt>
      <trkpt lat="47.239989694" lon="11.006390043">
        <ele>2333.6</ele>
        <time>2016-03-14T10:13:48</time>
      </trkpt>
      <trkpt lat="47.240063455" lon="11.006305050">
        <ele>2330.1</ele>
        <time>2016-03-14T10:13:50</time>
      </trkpt>
      <trkpt lat="47.240233775" lon="11.006250484">
        <ele>2322.7</ele>
        <time>2016-03-14T10:13:54</time>
      </trkpt>
      <trkpt lat="47.240381464" lon="11.006138418">
        <ele>2311.8</ele>
        <time>2016-03-14T10:13:58</time>
      </trkpt>
      <trkpt lat="47.240424547" lon="11.006057030">
        <ele>2307.8</ele>
        <time>2016-03-14T10:14:00</time>
      </trkpt>
      <trkpt lat="47.240447346" lon="11.005923757">
        <ele>2301.5</ele>
        <time>2016-03-14T10:14:03</time>
      </trkpt>
      <trkpt lat="47.240406945" lon="11.005863743">
        <ele>2295.1</ele>
        <time>2016-03-14T10:14:08</time>
      </trkpt>
      <trkpt lat="47.240311475" lon="11.005844548">
        <ele>2291.8</ele>
        <time>2016-03-14T10:15:21</time>
      </trkpt>
      <trkpt lat="47.240529740" lon="11.005506758">
        <ele>2289.7</ele>
        <time>2016-03-14T10:15:31</time>
      </trkpt>
      <trkpt lat="47.240719507" lon="11.005050782">
        <ele>2280.5</ele>
        <time>2016-03-14T10:15:38</time>
      </trkpt>
      <trkpt lat="47.240863843" lon="11.004914492">
        <ele>2275.1</ele>
        <time>2016-03-14T10:15:41</time>
      </trkpt>
      <trkpt lat="47.241128795" lon="11.004763786">
        <ele>2267.2</ele>
        <time>2016-03-14T10:15:49</time>
      </trkpt>
      <trkpt lat="47.241278412" lon="11.004898231">
        <ele>2263.4</ele>
        <time>2016-03-14T10:15:53</time>
      </trkpt>
      <trkpt lat="47.241390729" lon="11.005109958">
        <ele>2258.0</ele>
        <time>2016-03-14T10:15:56</time>
      </trkpt>
      <trkpt lat="47.241528193" lon="11.005207608">
        <ele>2253.3</ele>
        <time>2016-03-14T10:15:58</time>
      </trkpt>
      <trkpt lat="47.241791217" lon="11.005734326">
        <ele>2226.3</ele>
        <time>2016-03-14T10:16:05</time>
      </trkpt>
      <trkpt lat="47.241879730" lon="11.005782774">
        <ele>2222.2</ele>
        <time>2016-03-14T10:16:06</time>
      </trkpt>
      <trkpt lat="47.241985258" lon="11.005911855">
        <ele>2213.8</ele>
        <time>2016-03-14T10:16:08</time>
      </trkpt>
      <trkpt lat="47.242023312" lon="11.006039176">
        <ele>2205.6</ele>
        <time>2016-03-14T10:16:10</time>
      </trkpt>
      <trkpt lat="47.242209893" lon="11.006223829">
        <ele>2193.3</ele>
        <time>2016-03-14T10:16:13</time>
      </trkpt>
      <trkpt lat="47.242409885" lon="11.006498085">
        <ele>2177.3</ele>
        <time>2016-03-14T10:16:17</time>
      </trkpt>
      <trkpt lat="47.242641058" lon="11.006682571">
        <ele>2162.9</ele>
        <time>2016-03-14T10:16:21</time>
      </trkpt>
      <trkpt lat="47.242746586" lon="11.006721379">
        <ele>2156.8</ele>
        <time>2016-03-14T10:16:23</time>
      </trkpt>
      <trkpt lat="47.242824035" lon="11.006649379">
        <ele>2146.2</ele>
        <time>2016-03-14T10:16:27</time>
      </trkpt>
      <trkpt lat="47.242949344" lon="11.006659437">
        <ele>2135.7</ele>
        <time>2016-03-14T10:17:53</time>
      </trkpt>
      <trkpt lat="47.243410265" lon="11.006774018">
        <ele>2127.1</ele>
        <time>2016-03-14T10:18:38</time>
      </trkpt>
      <trkpt lat="47.243815279" lon="11.006745603">
        <ele>2118.9</ele>
        <time>2016-03-14T10:18:45</time>
      </trkpt>
      <trkpt lat="47.243912173" lon="11.006452991">
        <ele>2109.6</ele>
        <time>2016-03-14T10:18:49</time>
      </trkpt>
      <trkpt lat="47.244209647" lon="11.006022831">
        <ele>2091.8</ele>
        <time>2016-03-14T10:19:00</time>
      </trkpt>
      <trkpt lat="47.244310901" lon="11.006381409">
        <ele>2083.8</ele>
        <time>2016-03-14T10:20:18</time>
      </trkpt>
      <trkpt lat="47.244691690" lon="11.006611492">
        <ele>2061.9</ele>
        <time>2016-03-14T10:20:26</time>
      </trkpt>
      <trkpt lat="47.244771151" lon="11.006734455">
        <ele>2055.3</ele>
        <time>2016-03-14T10:20:28</time>
      </trkpt>
      <trkpt lat="47.244901573" lon="11.006793715">
        <ele>2046.3</ele>
        <time>2016-03-14T10:20:31</time>
      </trkpt>
      <trkpt lat="47.244955553" lon="11.006907206">
        <ele>2039.0</ele>
        <time>2016-03-14T10:20:33</time>
      </trkpt>
      <trkpt lat="47.245003749" lon="11.006945679">
        <ele>2035.5</ele>
        <time>2016-03-14T10:20:34</time>
      </trkpt>
      <trkpt lat="47.245043144" lon="11.007217839">
        <ele>2026.0</ele>
        <time>2016-03-14T10:20:37</time>
      </trkpt>
      <trkpt lat="47.245090334" lon="11.007331582">
        <ele>2019.5</ele>
        <time>2016-03-14T10:20:39</time>
      </trkpt>
      <trkpt lat="47.245206004" lon="11.007386651">
        <ele>2010.1</ele>
        <time>2016-03-14T10:20:42</time>
      </trkpt>
      <trkpt lat="47.245235173" lon="11.007364774">
        <ele>1996.9</ele>
        <time>2016-03-14T10:20:50</time>
      </trkpt>
      <trkpt lat="47.245481266" lon="11.007649591">
        <ele>1993.3</ele>
        <time>2016-03-14T10:20:56</time>
      </trkpt>
      <trkpt lat="47.245803801" lon="11.007944802">
        <ele>1984.4</ele>
        <time>2016-03-14T10:21:01</time>
      </trkpt>
      <trkpt lat="47.246474186" lon="11.008232050">
        <ele>1958.1</ele>
        <time>2016-03-14T10:21:09</time>
      </trkpt>
      <trkpt lat="47.246948350" lon="11.008080421">
        <ele>1935.2</ele>
        <time>2016-03-14T10:21:16</time>
      </trkpt>
      <trkpt lat="47.247168878" lon="11.008082181">
        <ele>1926.5</ele>
        <time>2016-03-14T10:21:19</time>
      </trkpt>
      <trkpt lat="47.247431148" lon="11.008244790">
        <ele>1916.4</ele>
        <time>2016-03-14T10:21:23</time>
      </trkpt>
      <trkpt lat="47.247626949" lon="11.008449225">
        <ele>1907.2</ele>
        <time>2016-03-14T10:21:26</time>
      </trkpt>
      <trkpt lat="47.247758210" lon="11.008505467">
        <ele>1903.2</ele>
        <time>2016-03-14T10:21:28</time>
      </trkpt>
      <trkpt lat="47.247791653" lon="11.008577049">
        <ele>1899.3</ele>
        <time>2016-03-14T10:21:30</time>
      </trkpt>
      <trkpt lat="47.247661650" lon="11.008576546">
        <ele>1888.2</ele>
        <time>2016-03-14T10:22:32</time>
      </trkpt>
      <trkpt lat="47.247618316" lon="11.008737898">
        <ele>1892.0</ele>
        <time>2016-03-14T10:27:43</time>
      </trkpt>
      <trkpt lat="47.247524103" lon="11.008888017">
        <ele>1894.2</ele>
        <time>2016-03-14T10:28:05</time>
      </trkpt>
      <trkpt lat="47.247511363" lon="11.008983068">
        <ele>1895.1</ele>
        <time>2016-03-14T10:28:21</time>
      </trkpt>
      <trkpt lat="47.247566013" lon="11.009338293">
        <ele>1900.4</ele>
        <time>2016-03-14T10:29:05</time>
      </trkpt>
      <trkpt lat="47.247524606" lon="11.009523030">
        <ele>1903.9</ele>
        <time>2016-03-14T10:29:31</time>
      </trkpt>
      <trkpt lat="47.247616891" lon="11.009858809">
        <ele>1909.7</ele>
        <time>2016-03-14T10:30:15</time>
      </trkpt>
      <trkpt lat="47.247658046" lon="11.010200121">
        <ele>1917.1</ele>
        <time>2016-03-14T10:30:58</time>
      </trkpt>
      <trkpt lat="47.247612784" lon="11.010561967">
        <ele>1923.1</ele>
        <time>2016-03-14T10:31:47</time>
      </trkpt>
      <trkpt lat="47.247661734" lon="11.011134619">
        <ele>1930.7</ele>
        <time>2016-03-14T10:32:47</time>
      </trkpt>
      <trkpt lat="47.247553356" lon="11.011641724">
        <ele>1938.0</ele>
        <time>2016-03-14T10:33:46</time>
      </trkpt>
      <trkpt lat="47.247462999" lon="11.011708612">
        <ele>1939.8</ele>
        <time>2016-03-14T10:34:00</time>
      </trkpt>
      <trkpt lat="47.247457383" lon="11.011796119">
        <ele>1941.5</ele>
        <time>2016-03-14T10:34:14</time>
      </trkpt>
      <trkpt lat="47.247310532" lon="11.011783713">
        <ele>1941.9</ele>
        <time>2016-03-14T10:34:38</time>
      </trkpt>
      <trkpt lat="47.247268204" lon="11.011817744">
        <ele>1941.8</ele>
        <time>2016-03-14T10:35:10</time>
      </trkpt>
      <trkpt lat="47.247343808" lon="11.011842722">
        <ele>1942.9</ele>
        <time>2016-03-14T10:36:01</time>
      </trkpt>
      <trkpt lat="47.247267868" lon="11.012011617">
        <ele>1943.0</ele>
        <time>2016-03-14T10:36:28</time>
      </trkpt>
      <trkpt lat="47.246672418" lon="11.012800438">
        <ele>1948.2</ele>
        <time>2016-03-14T10:38:02</time>
      </trkpt>
      <trkpt lat="47.246420458" lon="11.013035467">
        <ele>1950.3</ele>
        <time>2016-03-14T10:38:36</time>
      </trkpt>
      <trkpt lat="47.246252317" lon="11.013370492">
        <ele>1951.0</ele>
        <time>2016-03-14T10:39:07</time>
      </trkpt>
      <trkpt lat="47.245932547" lon="11.013819594">
        <ele>1954.4</ele>
        <time>2016-03-14T10:40:02</time>
      </trkpt>
      <trkpt lat="47.245756527" lon="11.013988322">
        <ele>1956.9</ele>
        <time>2016-03-14T10:40:28</time>
      </trkpt>
      <trkpt lat="47.245459054" lon="11.014431557">
        <ele>1958.7</ele>
        <time>2016-03-14T10:41:14</time>
      </trkpt>
      <trkpt lat="47.245348245" lon="11.014696592">
        <ele>1961.4</ele>
        <time>2016-03-14T10:41:44</time>
      </trkpt>
      <trkpt lat="47.245214386" lon="11.015135637">
        <ele>1964.1</ele>
        <time>2016-03-14T10:42:28</time>
      </trkpt>
      <trkpt lat="47.245088909" lon="11.015353817">
        <ele>1965.2</ele>
        <time>2016-03-14T10:42:52</time>
      </trkpt>
      <trkpt lat="47.244800823" lon="11.016000984">
        <ele>1966.2</ele>
        <time>2016-03-14T10:44:03</time>
      </trkpt>
      <trkpt lat="47.244643578" lon="11.016670950">
        <ele>1972.0</ele>
        <time>2016-03-14T10:45:13</time>
      </trkpt>
      <trkpt lat="47.244566968" lon="11.017272016">
        <ele>1976.9</ele>
        <time>2016-03-14T10:46:15</time>
      </trkpt>
      <trkpt lat="47.244445179" lon="11.017628331">
        <ele>1979.7</ele>
        <time>2016-03-14T10:46:54</time>
      </trkpt>
      <trkpt lat="47.244446687" lon="11.017772667">
        <ele>1979.9</ele>
        <time>2016-03-14T10:47:09</time>
      </trkpt>
      <trkpt lat="47.244505864" lon="11.017974168">
        <ele>1980.2</ele>
        <time>2016-03-14T10:47:23</time>
      </trkpt>
      <trkpt lat="47.244471414" lon="11.018120348">
        <ele>1982.9</ele>
        <time>2016-03-14T10:47:39</time>
      </trkpt>
      <trkpt lat="47.244425733" lon="11.018185560">
        <ele>1983.5</ele>
        <time>2016-03-14T10:47:54</time>
      </trkpt>
      <trkpt lat="47.244401928" lon="11.018546820">
        <ele>1987.2</ele>
        <time>2016-03-14T10:48:35</time>
      </trkpt>
      <trkpt lat="47.244412741" lon="11.018690653">
        <ele>1989.3</ele>
        <time>2016-03-14T10:48:50</time>
      </trkpt>
      <trkpt lat="47.244473258" lon="11.018849658">
        <ele>1992.9</ele>
        <time>2016-03-14T10:49:19</time>
      </trkpt>
      <trkpt lat="47.244412405" lon="11.018804815">
        <ele>1993.2</ele>
        <time>2016-03-14T10:49:41</time>
      </trkpt>
      <trkpt lat="47.244268237" lon="11.018819567">
        <ele>1996.1</ele>
        <time>2016-03-14T10:51:51</time>
      </trkpt>
      <trkpt lat="47.244232949" lon="11.018881761">
        <ele>1997.6</ele>
        <time>2016-03-14T10:52:04</time>
      </trkpt>
      <trkpt lat="47.244458003" lon="11.019410072">
        <ele>2008.8</ele>
        <time>2016-03-14T10:53:31</time>
      </trkpt>
      <trkpt lat="47.244210318" lon="11.019329438">
        <ele>2011.9</ele>
        <time>2016-03-14T10:54:54</time>
      </trkpt>
      <trkpt lat="47.244157344" lon="11.019362882">
        <ele>2014.0</ele>
        <time>2016-03-14T10:55:07</time>
      </trkpt>
      <trkpt lat="47.244139994" lon="11.019415436">
        <ele>2016.3</ele>
        <time>2016-03-14T10:55:20</time>
      </trkpt>
      <trkpt lat="47.244201936" lon="11.019570418">
        <ele>2018.0</ele>
        <time>2016-03-14T10:55:41</time>
      </trkpt>
      <trkpt lat="47.244249210" lon="11.019825479">
        <ele>2023.9</ele>
        <time>2016-03-14T10:56:18</time>
      </trkpt>
      <trkpt lat="47.244161367" lon="11.019767476">
        <ele>2024.7</ele>
        <time>2016-03-14T10:59:06</time>
      </trkpt>
      <trkpt lat="47.243935475" lon="11.019756580">
        <ele>2032.9</ele>
        <time>2016-03-14T10:59:52</time>
      </trkpt>
      <trkpt lat="47.243891889" lon="11.019723890">
        <ele>2035.2</ele>
        <time>2016-03-14T11:00:10</time>
      </trkpt>
      <trkpt lat="47.243823325" lon="11.019746521">
        <ele>2037.3</ele>
        <time>2016-03-14T11:01:01</time>
      </trkpt>
      <trkpt lat="47.243844699" lon="11.020081211">
        <ele>2043.3</ele>
        <time>2016-03-14T11:01:43</time>
      </trkpt>
      <trkpt lat="47.243791306" lon="11.020466359">
        <ele>2051.1</ele>
        <time>2016-03-14T11:02:41</time>
      </trkpt>
      <trkpt lat="47.243711678" lon="11.020641373">
        <ele>2056.3</ele>
        <time>2016-03-14T11:03:11</time>
      </trkpt>
      <trkpt lat="47.243306246" lon="11.021068431">
        <ele>2067.7</ele>
        <time>2016-03-14T11:05:13</time>
      </trkpt>
      <trkpt lat="47.243197616" lon="11.021218551">
        <ele>2071.2</ele>
        <time>2016-03-14T11:05:42</time>
      </trkpt>
      <trkpt lat="47.243122598" lon="11.021346962">
        <ele>2073.1</ele>
        <time>2016-03-14T11:06:00</time>
      </trkpt>
      <trkpt lat="47.243063087" lon="11.021636473">
        <ele>2076.1</ele>
        <time>2016-03-14T11:06:34</time>
      </trkpt>
      <trkpt lat="47.242965102" lon="11.021875022">
        <ele>2078.6</ele>
        <time>2016-03-14T11:07:02</time>
      </trkpt>
      <trkpt lat="47.242649859" lon="11.022154978">
        <ele>2086.3</ele>
        <time>2016-03-14T11:08:02</time>
      </trkpt>
      <trkpt lat="47.242529076" lon="11.022215830">
        <ele>2088.4</ele>
        <time>2016-03-14T11:08:22</time>
      </trkpt>
      <trkpt lat="47.242123894" lon="11.022735592">
        <ele>2099.9</ele>
        <time>2016-03-14T11:09:52</time>
      </trkpt>
      <trkpt lat="47.242013421" lon="11.022937512">
        <ele>2102.8</ele>
        <time>2016-03-14T11:10:20</time>
      </trkpt>
      <trkpt lat="47.241957262" lon="11.022988642">
        <ele>2104.0</ele>
        <time>2016-03-14T11:10:30</time>
      </trkpt>
      <trkpt lat="47.241875287" lon="11.023204979">
        <ele>2106.8</ele>
        <time>2016-03-14T11:10:56</time>
      </trkpt>
      <trkpt lat="47.241771100" lon="11.023380160">
        <ele>2109.7</ele>
        <time>2016-03-14T11:11:20</time>
      </trkpt>
      <trkpt lat="47.241615364" lon="11.023926577">
        <ele>2118.3</ele>
        <time>2016-03-14T11:12:31</time>
      </trkpt>
      <trkpt lat="47.241527606" lon="11.024043839">
        <ele>2122.4</ele>
        <time>2016-03-14T11:12:59</time>
      </trkpt>
      <trkpt lat="47.241399866" lon="11.024138806">
        <ele>2125.1</ele>
        <time>2016-03-14T11:13:23</time>
      </trkpt>
      <trkpt lat="47.241471950" lon="11.024560584">
        <ele>2130.0</ele>
        <time>2016-03-14T11:15:14</time>
      </trkpt>
      <trkpt lat="47.241451750" lon="11.024794690">
        <ele>2134.6</ele>
        <time>2016-03-14T11:15:44</time>
      </trkpt>
      <trkpt lat="47.241386538" lon="11.025012620">
        <ele>2138.0</ele>
        <time>2016-03-14T11:16:17</time>
      </trkpt>
      <trkpt lat="47.241386957" lon="11.025547637">
        <ele>2145.8</ele>
        <time>2016-03-14T11:17:23</time>
      </trkpt>
      <trkpt lat="47.241292074" lon="11.025754586">
        <ele>2151.1</ele>
        <time>2016-03-14T11:18:02</time>
      </trkpt>
      <trkpt lat="47.241266174" lon="11.025956925">
        <ele>2154.9</ele>
        <time>2016-03-14T11:18:34</time>
      </trkpt>
      <trkpt lat="47.241290817" lon="11.026342409">
        <ele>2160.7</ele>
        <time>2016-03-14T11:19:57</time>
      </trkpt>
      <trkpt lat="47.241413696" lon="11.026540054">
        <ele>2165.8</ele>
        <time>2016-03-14T11:20:54</time>
      </trkpt>
      <trkpt lat="47.241572700" lon="11.026655892">
        <ele>2170.6</ele>
        <time>2016-03-14T11:21:30</time>
      </trkpt>
      <trkpt lat="47.241553087" lon="11.026733005">
        <ele>2172.5</ele>
        <time>2016-03-14T11:21:42</time>
      </trkpt>
      <trkpt lat="47.241454599" lon="11.026842725">
        <ele>2176.5</ele>
        <time>2016-03-14T11:22:12</time>
      </trkpt>
      <trkpt lat="47.241192916" lon="11.027329881">
        <ele>2188.4</ele>
        <time>2016-03-14T11:23:48</time>
      </trkpt>
      <trkpt lat="47.241133321" lon="11.027499028">
        <ele>2192.9</ele>
        <time>2016-03-14T11:24:19</time>
      </trkpt>
      <trkpt lat="47.241079509" lon="11.027910663">
        <ele>2201.5</ele>
        <time>2016-03-14T11:25:18</time>
      </trkpt>
      <trkpt lat="47.241086382" lon="11.028135968">
        <ele>2205.5</ele>
        <time>2016-03-14T11:25:48</time>
      </trkpt>
      <trkpt lat="47.240987644" lon="11.028357670">
        <ele>2211.4</ele>
        <time>2016-03-14T11:26:36</time>
      </trkpt>
      <trkpt lat="47.240981273" lon="11.028454648">
        <ele>2213.8</ele>
        <time>2016-03-14T11:26:51</time>
      </trkpt>
      <trkpt lat="47.240942214" lon="11.028543077">
        <ele>2215.4</ele>
        <time>2016-03-14T11:27:05</time>
      </trkpt>
      <trkpt lat="47.240957469" lon="11.028607618">
        <ele>2217.7</ele>
        <time>2016-03-14T11:27:22</time>
      </trkpt>
      <trkpt lat="47.241245974" lon="11.028621029">
        <ele>2224.3</ele>
        <time>2016-03-14T11:28:18</time>
      </trkpt>
      <trkpt lat="47.241469771" lon="11.028427240">
        <ele>2230.0</ele>
        <time>2016-03-14T11:29:05</time>
      </trkpt>
      <trkpt lat="47.241609581" lon="11.028401591">
        <ele>2233.2</ele>
        <time>2016-03-14T11:33:01</time>
      </trkpt>
      <trkpt lat="47.241853829" lon="11.028584735">
        <ele>2239.3</ele>
        <time>2016-03-14T11:34:27</time>
      </trkpt>
      <trkpt lat="47.242027503" lon="11.028764360">
        <ele>2244.7</ele>
        <time>2016-03-14T11:35:21</time>
      </trkpt>
      <trkpt lat="47.242262112" lon="11.028806521">
        <ele>2251.1</ele>
        <time>2016-03-14T11:36:35</time>
      </trkpt>
      <trkpt lat="47.242211485" lon="11.028925879">
        <ele>2252.7</ele>
        <time>2016-03-14T11:36:52</time>
      </trkpt>
      <trkpt lat="47.241873024" lon="11.029310022">
        <ele>2266.7</ele>
        <time>2016-03-14T11:38:40</time>
      </trkpt>
      <trkpt lat="47.242114842" lon="11.029384369">
        <ele>2271.0</ele>
        <time>2016-03-14T11:39:32</time>
      </trkpt>
      <trkpt lat="47.242423212" lon="11.029564664">
        <ele>2279.7</ele>
        <time>2016-03-14T11:40:45</time>
      </trkpt>
      <trkpt lat="47.242167816" lon="11.029841518">
        <ele>2288.8</ele>
        <time>2016-03-14T11:41:54</time>
      </trkpt>
      <trkpt lat="47.242180053" lon="11.029885523">
        <ele>2291.1</ele>
        <time>2016-03-14T11:42:10</time>
      </trkpt>
      <trkpt lat="47.242239984" lon="11.029942269">
        <ele>2291.3</ele>
        <time>2016-03-14T11:42:22</time>
      </trkpt>
      <trkpt lat="47.242468391" lon="11.030018125">
        <ele>2296.5</ele>
        <time>2016-03-14T11:43:08</time>
      </trkpt>
      <trkpt lat="47.242598478" lon="11.030104123">
        <ele>2299.3</ele>
        <time>2016-03-14T11:43:35</time>
      </trkpt>
      <trkpt lat="47.242701240" lon="11.030106470">
        <ele>2301.7</ele>
        <time>2016-03-14T11:43:54</time>
      </trkpt>
      <trkpt lat="47.242917996" lon="11.029889211">
        <ele>2308.4</ele>
        <time>2016-03-14T11:44:43</time>
      </trkpt>
      <trkpt lat="47.242959151" lon="11.029889798">
        <ele>2310.9</ele>
        <time>2016-03-14T11:45:03</time>
      </trkpt>
      <trkpt lat="47.243070295" lon="11.030013347">
        <ele>2313.2</ele>
        <time>2016-03-14T11:46:40</time>
      </trkpt>
      <trkpt lat="47.243091585" lon="11.030084593">
        <ele>2315.4</ele>
        <time>2016-03-14T11:46:58</time>
      </trkpt>
      <trkpt lat="47.243170710" lon="11.030121641">
        <ele>2318.4</ele>
        <time>2016-03-14T11:47:25</time>
      </trkpt>
      <trkpt lat="47.243326949" lon="11.030281987">
        <ele>2320.1</ele>
        <time>2016-03-14T11:47:55</time>
      </trkpt>
      <trkpt lat="47.243530126" lon="11.030244688">
        <ele>2322.1</ele>
        <time>2016-03-14T11:48:26</time>
      </trkpt>
      <trkpt lat="47.243728358" lon="11.030345941">
        <ele>2328.6</ele>
        <time>2016-03-14T11:49:11</time>
      </trkpt>
      <trkpt lat="47.243999681" lon="11.030627741">
        <ele>2334.9</ele>
        <time>2016-03-14T11:50:07</time>
      </trkpt>
      <trkpt lat="47.244425397" lon="11.031315308">
        <ele>2349.4</ele>
        <time>2016-03-14T11:52:01</time>
      </trkpt>
      <trkpt lat="47.244614745" lon="11.031954093">
        <ele>2361.7</ele>
        <time>2016-03-14T11:53:30</time>
      </trkpt>
      <trkpt lat="47.244618516" lon="11.032183338">
        <ele>2364.3</ele>
        <time>2016-03-14T11:54:14</time>
      </trkpt>
      <trkpt lat="47.244589264" lon="11.032378636">
        <ele>2368.7</ele>
        <time>2016-03-14T11:54:44</time>
      </trkpt>
      <trkpt lat="47.244809540" lon="11.032374613">
        <ele>2373.9</ele>
        <time>2016-03-14T11:55:27</time>
      </trkpt>
      <trkpt lat="47.244976256" lon="11.032292219">
        <ele>2378.9</ele>
        <time>2016-03-14T11:56:03</time>
      </trkpt>
      <trkpt lat="47.245017830" lon="11.032674350">
        <ele>2385.6</ele>
        <time>2016-03-14T11:57:11</time>
      </trkpt>
      <trkpt lat="47.245220253" lon="11.032775100">
        <ele>2391.5</ele>
        <time>2016-03-14T11:57:58</time>
      </trkpt>
      <trkpt lat="47.245430890" lon="11.032733358">
        <ele>2395.7</ele>
        <time>2016-03-14T11:58:33</time>
      </trkpt>
      <trkpt lat="47.245601630" lon="11.032615006">
        <ele>2399.8</ele>
        <time>2016-03-14T11:59:07</time>
      </trkpt>
      <trkpt lat="47.245697016" lon="11.032614000">
        <ele>2402.5</ele>
        <time>2016-03-14T11:59:27</time>
      </trkpt>
      <trkpt lat="47.245964315" lon="11.032764288">
        <ele>2413.0</ele>
        <time>2016-03-14T12:01:25</time>
      </trkpt>
      <trkpt lat="47.245933386" lon="11.032788008">
        <ele>2412.9</ele>
        <time>2016-03-14T12:01:53</time>
      </trkpt>
      <trkpt lat="47.245944031" lon="11.033186819">
        <ele>2417.6</ele>
        <time>2016-03-14T12:02:49</time>
      </trkpt>
      <trkpt lat="47.245989293" lon="11.033405922">
        <ele>2421.2</ele>
        <time>2016-03-14T12:03:15</time>
      </trkpt>
      <trkpt lat="47.246003374" lon="11.033727368">
        <ele>2425.1</ele>
        <time>2016-03-14T12:03:52</time>
      </trkpt>
      <trkpt lat="47.245963812" lon="11.033907495">
        <ele>2427.6</ele>
        <time>2016-03-14T12:04:16</time>
      </trkpt>
      <trkpt lat="47.245868007" lon="11.034123749">
        <ele>2432.1</ele>
        <time>2016-03-14T12:04:53</time>
      </trkpt>
      <trkpt lat="47.245747391" lon="11.034242604">
        <ele>2437.6</ele>
        <time>2016-03-14T12:05:32</time>
      </trkpt>
      <trkpt lat="47.245844537" lon="11.034478806">
        <ele>2442.1</ele>
        <time>2016-03-14T12:06:16</time>
      </trkpt>
      <trkpt lat="47.245859290" lon="11.034588693">
        <ele>2444.7</ele>
        <time>2016-03-14T12:06:31</time>
      </trkpt>
      <trkpt lat="47.245840263" lon="11.034684414">
        <ele>2446.8</ele>
        <time>2016-03-14T12:06:44</time>
      </trkpt>
      <trkpt lat="47.245755270" lon="11.034776028">
        <ele>2450.4</ele>
        <time>2016-03-14T12:07:26</time>
      </trkpt>
      <trkpt lat="47.245598864" lon="11.034757420">
        <ele>2455.1</ele>
        <time>2016-03-14T12:07:57</time>
      </trkpt>
      <trkpt lat="47.245520828" lon="11.034798911">
        <ele>2457.8</ele>
        <time>2016-03-14T12:08:12</time>
      </trkpt>
      <trkpt lat="47.245301558" lon="11.035020109">
        <ele>2462.6</ele>
        <time>2016-03-14T12:09:01</time>
      </trkpt>
      <trkpt lat="47.245264426" lon="11.035169559">
        <ele>2462.6</ele>
        <time>2016-03-14T12:09:14</time>
      </trkpt>
      <trkpt lat="47.245261660" lon="11.035302747">
        <ele>2463.9</ele>
        <time>2016-03-14T12:09:25</time>
      </trkpt>
      <trkpt lat="47.245293260" lon="11.035462841">
        <ele>2465.7</ele>
        <time>2016-03-14T12:09:40</time>
      </trkpt>
      <trkpt lat="47.245269371" lon="11.035633245">
        <ele>2467.1</ele>
        <time>2016-03-14T12:10:12</time>
      </trkpt>
      <trkpt lat="47.245319914" lon="11.036018562">
        <ele>2469.2</ele>
        <time>2016-03-14T12:10:57</time>
      </trkpt>
      <trkpt lat="47.245077677" lon="11.036708727">
        <ele>2475.4</ele>
        <time>2016-03-14T12:12:52</time>
      </trkpt>
      <trkpt lat="47.244957061" lon="11.037004190">
        <ele>2477.1</ele>
        <time>2016-03-14T12:14:33</time>
      </trkpt>
      <trkpt lat="47.244882965" lon="11.037112400">
        <ele>2476.8</ele>
        <time>2016-03-14T12:14:43</time>
      </trkpt>
      <trkpt lat="47.244753130" lon="11.037193453">
        <ele>2477.7</ele>
        <time>2016-03-14T12:15:00</time>
      </trkpt>
      <trkpt lat="47.244387260" lon="11.037049536">
        <ele>2487.6</ele>
        <time>2016-03-14T12:16:27</time>
      </trkpt>
      <trkpt lat="47.244151728" lon="11.036934033">
        <ele>2493.5</ele>
        <time>2016-03-14T12:17:56</time>
      </trkpt>
      <trkpt lat="47.244097413" lon="11.036874941">
        <ele>2497.4</ele>
        <time>2016-03-14T12:18:28</time>
      </trkpt>
      <trkpt lat="47.244096659" lon="11.037038639">
        <ele>2498.7</ele>
        <time>2016-03-14T12:19:41</time>
      </trkpt>
      <trkpt lat="47.244083332" lon="11.036980385">
        <ele>2501.8</ele>
        <time>2016-03-14T12:20:00</time>
      </trkpt>
      <trkpt lat="47.244038656" lon="11.036952138">
        <ele>2502.9</ele>
        <time>2016-03-14T12:20:15</time>
      </trkpt>
      <trkpt lat="47.244062964" lon="11.037166966">
        <ele>2509.0</ele>
        <time>2016-03-14T12:21:39</time>
      </trkpt>
      <trkpt lat="47.244000435" lon="11.037103934">
        <ele>2512.8</ele>
        <time>2016-03-14T12:22:19</time>
      </trkpt>
      <trkpt lat="47.244059108" lon="11.037233854">
        <ele>2512.7</ele>
        <time>2016-03-14T12:23:06</time>
      </trkpt>
      <trkpt lat="47.244037399" lon="11.037289510">
        <ele>2514.7</ele>
        <time>2016-03-14T12:23:36</time>
      </trkpt>
      <trkpt lat="47.244012589" lon="11.037252545">
        <ele>2517.5</ele>
        <time>2016-03-14T12:24:04</time>
      </trkpt>
      <trkpt lat="47.244029352" lon="11.037414400">
        <ele>2522.1</ele>
        <time>2016-03-14T12:25:09</time>
      </trkpt>
      <trkpt lat="47.243970092" lon="11.037364192">
        <ele>2524.1</ele>
        <time>2016-03-14T12:26:34</time>
      </trkpt>
      <trkpt lat="47.243996998" lon="11.037509535">
        <ele>2527.1</ele>
        <time>2016-03-14T12:27:08</time>
      </trkpt>
      <trkpt lat="47.244028179" lon="11.037531160">
        <ele>2531.3</ele>
        <time>2016-03-14T12:28:58</time>
      </trkpt>
      <trkpt lat="47.243987946" lon="11.037502494">
        <ele>2532.1</ele>
        <time>2016-03-14T12:29:25</time>
      </trkpt>
      <trkpt lat="47.243985599" lon="11.037606345">
        <ele>2536.0</ele>
        <time>2016-03-14T12:29:58</time>
      </trkpt>
      <trkpt lat="47.243980905" lon="11.037569717">
        <ele>2537.3</ele>
        <time>2016-03-14T12:30:34</time>
      </trkpt>
      <trkpt lat="47.243935307" lon="11.037692344">
        <ele>2541.3</ele>
        <time>2016-03-14T12:31:17</time>
      </trkpt>
      <trkpt lat="47.243975708" lon="11.037681783">
        <ele>2542.1</ele>
        <time>2016-03-14T12:31:44</time>
      </trkpt>
      <trkpt lat="47.243953748" lon="11.037681196">
        <ele>2542.6</ele>
        <time>2016-03-14T12:32:05</time>
      </trkpt>
      <trkpt lat="47.244007140" lon="11.037822012">
        <ele>2546.6</ele>
        <time>2016-03-14T12:33:30</time>
      </trkpt>
      <trkpt lat="47.243964728" lon="11.037800135">
        <ele>2547.5</ele>
        <time>2016-03-14T12:33:43</time>
      </trkpt>
      <trkpt lat="47.243993729" lon="11.037892587">
        <ele>2551.8</ele>
        <time>2016-03-14T12:34:28</time>
      </trkpt>
      <trkpt lat="47.243967829" lon="11.037904993">
        <ele>2553.0</ele>
        <time>2016-03-14T12:34:43</time>
      </trkpt>
      <trkpt lat="47.243954251" lon="11.037899377">
        <ele>2554.5</ele>
        <time>2016-03-14T12:35:50</time>
      </trkpt>
      <trkpt lat="47.243959699" lon="11.037868280">
        <ele>2554.9</ele>
        <time>2016-03-14T12:36:11</time>
      </trkpt>
      <trkpt lat="47.243911754" lon="11.037903149">
        <ele>2556.8</ele>
        <time>2016-03-14T12:36:32</time>
      </trkpt>
      <trkpt lat="47.243900187" lon="11.037967103">
        <ele>2554.9</ele>
        <time>2016-03-14T12:36:54</time>
      </trkpt>
      <trkpt lat="47.243956681" lon="11.038042875">
        <ele>2557.1</ele>
        <time>2016-03-14T12:37:15</time>
      </trkpt>
      <trkpt lat="47.243787451" lon="11.038051425">
        <ele>2563.7</ele>
        <time>2016-03-14T12:38:30</time>
      </trkpt>
      <trkpt lat="47.243700782" lon="11.037875153">
        <ele>2566.3</ele>
        <time>2016-03-14T12:39:47</time>
      </trkpt>
      <trkpt lat="47.243497940" lon="11.037597544">
        <ele>2567.1</ele>
        <time>2016-03-14T12:45:42</time>
      </trkpt>
      <trkpt lat="47.243438764" lon="11.037535099">
        <ele>2566.8</ele>
        <time>2016-03-14T12:50:39</time>
      </trkpt>
      <trkpt lat="47.243458042" lon="11.037429906">
        <ele>2568.9</ele>
        <time>2016-03-14T12:53:53</time>
      </trkpt>
      <trkpt lat="47.243400374" lon="11.037403336">
        <ele>2568.6</ele>
        <time>2016-03-14T12:54:00</time>
      </trkpt>
      <trkpt lat="47.243427699" lon="11.037928043">
        <ele>2558.3</ele>
        <time>2016-03-14T12:57:10</time>
      </trkpt>
      <trkpt lat="47.243301384" lon="11.038372703">
        <ele>2552.9</ele>
        <time>2016-03-14T12:57:19</time>
      </trkpt>
      <trkpt lat="47.243203819" lon="11.038439255">
        <ele>2550.3</ele>
        <time>2016-03-14T12:57:21</time>
      </trkpt>
      <trkpt lat="47.243159227" lon="11.038583256">
        <ele>2546.0</ele>
        <time>2016-03-14T12:57:23</time>
      </trkpt>
      <trkpt lat="47.243022770" lon="11.038693646">
        <ele>2537.3</ele>
        <time>2016-03-14T12:57:26</time>
      </trkpt>
      <trkpt lat="47.242667293" lon="11.039220532">
        <ele>2519.0</ele>
        <time>2016-03-14T12:57:34</time>
      </trkpt>
      <trkpt lat="47.242566962" lon="11.039182562">
        <ele>2502.6</ele>
        <time>2016-03-14T12:57:46</time>
      </trkpt>
      <trkpt lat="47.242510132" lon="11.039466122">
        <ele>2499.2</ele>
        <time>2016-03-14T12:57:51</time>
      </trkpt>
      <trkpt lat="47.242399156" lon="11.039505349">
        <ele>2496.8</ele>
        <time>2016-03-14T12:57:53</time>
      </trkpt>
      <trkpt lat="47.242236547" lon="11.039690506">
        <ele>2492.7</ele>
        <time>2016-03-14T12:57:56</time>
      </trkpt>
      <trkpt lat="47.241882915" lon="11.040378409">
        <ele>2471.8</ele>
        <time>2016-03-14T12:58:05</time>
      </trkpt>
      <trkpt lat="47.241737153" lon="11.040568929">
        <ele>2464.7</ele>
        <time>2016-03-14T12:58:08</time>
      </trkpt>
      <trkpt lat="47.241368769" lon="11.040720139">
        <ele>2443.0</ele>
        <time>2016-03-14T12:58:47</time>
      </trkpt>
      <trkpt lat="47.241238514" lon="11.040723743">
        <ele>2441.9</ele>
        <time>2016-03-14T12:58:49</time>
      </trkpt>
      <trkpt lat="47.241067523" lon="11.040899092">
        <ele>2425.6</ele>
        <time>2016-03-14T13:01:00</time>
      </trkpt>
      <trkpt lat="47.240847582" lon="11.040948797">
        <ele>2418.1</ele>
        <time>2016-03-14T13:03:26</time>
      </trkpt>
      <trkpt lat="47.240681034" lon="11.041113166">
        <ele>2414.8</ele>
        <time>2016-03-14T13:03:29</time>
      </trkpt>
      <trkpt lat="47.240528148" lon="11.041102940">
        <ele>2410.9</ele>
        <time>2016-03-14T13:03:31</time>
      </trkpt>
      <trkpt lat="47.240358079" lon="11.041000513">
        <ele>2402.3</ele>
        <time>2016-03-14T13:03:35</time>
      </trkpt>
      <trkpt lat="47.240239643" lon="11.041059606">
        <ele>2389.6</ele>
        <time>2016-03-14T13:04:13</time>
      </trkpt>
      <trkpt lat="47.240030514" lon="11.041311733">
        <ele>2378.9</ele>
        <time>2016-03-14T13:07:02</time>
      </trkpt>
      <trkpt lat="47.239754247" lon="11.041363953">
        <ele>2377.5</ele>
        <time>2016-03-14T13:07:09</time>
      </trkpt>
      <trkpt lat="47.239167094" lon="11.041116687">
        <ele>2359.3</ele>
        <time>2016-03-14T13:08:11</time>
      </trkpt>
      <trkpt lat="47.238885965" lon="11.041326737">
        <ele>2345.9</ele>
        <time>2016-03-14T13:08:19</time>
      </trkpt>
      <trkpt lat="47.237631781" lon="11.040679067">
        <ele>2312.3</ele>
        <time>2016-03-14T13:08:38</time>
      </trkpt>
      <trkpt lat="47.237006072" lon="11.040494749">
        <ele>2301.1</ele>
        <time>2016-03-14T13:08:50</time>
      </trkpt>
      <trkpt lat="47.236642716" lon="11.040306576">
        <ele>2296.3</ele>
        <time>2016-03-14T13:08:59</time>
      </trkpt>
      <trkpt lat="47.235707380" lon="11.040220829">
        <ele>2276.1</ele>
        <time>2016-03-14T13:09:26</time>
      </trkpt>
      <trkpt lat="47.235748451" lon="11.040587202">
        <ele>2273.2</ele>
        <time>2016-03-14T13:09:34</time>
      </trkpt>
      <trkpt lat="47.235717103" lon="11.041078381">
        <ele>2261.6</ele>
        <time>2016-03-14T13:09:39</time>
      </trkpt>
      <trkpt lat="47.235395573" lon="11.041817917">
        <ele>2230.1</ele>
        <time>2016-03-14T13:12:33</time>
      </trkpt>
      <trkpt lat="47.235215865" lon="11.042556530">
        <ele>2215.2</ele>
        <time>2016-03-14T13:12:38</time>
      </trkpt>
      <trkpt lat="47.235107487" lon="11.042674547">
        <ele>2207.8</ele>
        <time>2016-03-14T13:12:40</time>
      </trkpt>
      <trkpt lat="47.234962396" lon="11.042688712">
        <ele>2185.1</ele>
        <time>2016-03-14T13:13:06</time>
      </trkpt>
      <trkpt lat="47.234786879" lon="11.042888621">
        <ele>2184.2</ele>
        <time>2016-03-14T13:13:13</time>
      </trkpt>
      <trkpt lat="47.234580768" lon="11.043181736">
        <ele>2181.8</ele>
        <time>2016-03-14T13:13:17</time>
      </trkpt>
      <trkpt lat="47.234405586" lon="11.043578200">
        <ele>2177.1</ele>
        <time>2016-03-14T13:13:21</time>
      </trkpt>
      <trkpt lat="47.234103419" lon="11.043931413">
        <ele>2168.1</ele>
        <time>2016-03-14T13:13:27</time>
      </trkpt>
      <trkpt lat="47.233837210" lon="11.044451427">
        <ele>2160.4</ele>
        <time>2016-03-14T13:13:33</time>
      </trkpt>
      <trkpt lat="47.233494893" lon="11.044629961">
        <ele>2150.9</ele>
        <time>2016-03-14T13:13:37</time>
      </trkpt>
      <trkpt lat="47.233302947" lon="11.044810088">
        <ele>2146.1</ele>
        <time>2016-03-14T13:13:40</time>
      </trkpt>
      <trkpt lat="47.233265480" lon="11.044915784">
        <ele>2144.5</ele>
        <time>2016-03-14T13:13:41</time>
      </trkpt>
      <trkpt lat="47.233119635" lon="11.045418950">
        <ele>2137.3</ele>
        <time>2016-03-14T13:13:45</time>
      </trkpt>
      <trkpt lat="47.232981166" lon="11.046284465">
        <ele>2122.7</ele>
        <time>2016-03-14T13:13:51</time>
      </trkpt>
      <trkpt lat="47.232980076" lon="11.046760809">
        <ele>2114.1</ele>
        <time>2016-03-14T13:13:54</time>
      </trkpt>
      <trkpt lat="47.232866585" lon="11.047987919">
        <ele>2093.0</ele>
        <time>2016-03-14T13:14:04</time>
      </trkpt>
      <trkpt lat="47.232880248" lon="11.048250524">
        <ele>2089.8</ele>
        <time>2016-03-14T13:14:07</time>
      </trkpt>
      <trkpt lat="47.232774217" lon="11.048763413">
        <ele>2085.9</ele>
        <time>2016-03-14T13:14:14</time>
      </trkpt>
      <trkpt lat="47.232534830" lon="11.049374538">
        <ele>2081.4</ele>
        <time>2016-03-14T13:14:22</time>
      </trkpt>
      <trkpt lat="47.232231069" lon="11.049845601">
        <ele>2076.4</ele>
        <time>2016-03-14T13:14:28</time>
      </trkpt>
      <trkpt lat="47.231958322" lon="11.050006030">
        <ele>2071.7</ele>
        <time>2016-03-14T13:14:32</time>
      </trkpt>
      <trkpt lat="47.231797138" lon="11.050142571">
        <ele>2068.3</ele>
        <time>2016-03-14T13:14:35</time>
      </trkpt>
      <trkpt lat="47.231528750" lon="11.050539622">
        <ele>2064.2</ele>
        <time>2016-03-14T13:14:41</time>
      </trkpt>
      <trkpt lat="47.231082665" lon="11.051274966">
        <ele>2057.5</ele>
        <time>2016-03-14T13:14:51</time>
      </trkpt>
      <trkpt lat="47.230992308" lon="11.051511001">
        <ele>2055.0</ele>
        <time>2016-03-14T13:14:54</time>
      </trkpt>
      <trkpt lat="47.230826681" lon="11.051764553">
        <ele>2053.0</ele>
        <time>2016-03-14T13:14:59</time>
      </trkpt>
      <trkpt lat="47.230422338" lon="11.052617244">
        <ele>2047.7</ele>
        <time>2016-03-14T13:15:10</time>
      </trkpt>
      <trkpt lat="47.230050517" lon="11.053292407">
        <ele>2040.6</ele>
        <time>2016-03-14T13:15:18</time>
      </trkpt>
      <trkpt lat="47.229818171" lon="11.053517461">
        <ele>2038.1</ele>
        <time>2016-03-14T13:15:22</time>
      </trkpt>
      <trkpt lat="47.229203274" lon="11.053956924">
        <ele>2030.5</ele>
        <time>2016-03-14T13:15:32</time>
      </trkpt>
      <trkpt lat="47.228902280" lon="11.054210477">
        <ele>2027.4</ele>
        <time>2016-03-14T13:15:37</time>
      </trkpt>
      <trkpt lat="47.228775378" lon="11.054409044">
        <ele>2025.0</ele>
        <time>2016-03-14T13:15:40</time>
      </trkpt>
      <trkpt lat="47.228593240" lon="11.054510549">
        <ele>2022.5</ele>
        <time>2016-03-14T13:15:44</time>
      </trkpt>
      <trkpt lat="47.228291743" lon="11.054640384">
        <ele>2015.5</ele>
        <time>2016-03-14T13:15:58</time>
      </trkpt>
      <trkpt lat="47.228027293" lon="11.054623201">
        <ele>2014.4</ele>
        <time>2016-03-14T13:17:50</time>
      </trkpt>
      <trkpt lat="47.227701154" lon="11.054792851">
        <ele>2010.0</ele>
        <time>2016-03-14T13:17:54</time>
      </trkpt>
      <trkpt lat="47.227164712" lon="11.055004327">
        <ele>2001.4</ele>
        <time>2016-03-14T13:18:00</time>
      </trkpt>
      <trkpt lat="47.226993553" lon="11.055116476">
        <ele>1998.3</ele>
        <time>2016-03-14T13:18:02</time>
      </trkpt>
      <trkpt lat="47.226737654" lon="11.055174144">
        <ele>1993.5</ele>
        <time>2016-03-14T13:18:05</time>
      </trkpt>
      <trkpt lat="47.226261478" lon="11.055499949">
        <ele>1980.5</ele>
        <time>2016-03-14T13:18:13</time>
      </trkpt>
      <trkpt lat="47.226127367" lon="11.055654259">
        <ele>1976.7</ele>
        <time>2016-03-14T13:18:16</time>
      </trkpt>
      <trkpt lat="47.225832408" lon="11.055896161">
        <ele>1971.0</ele>
        <time>2016-03-14T13:18:22</time>
      </trkpt>
      <trkpt lat="47.225492271" lon="11.055894317">
        <ele>1962.1</ele>
        <time>2016-03-14T13:18:28</time>
      </trkpt>
      <trkpt lat="47.225328656" lon="11.055966821">
        <ele>1957.5</ele>
        <time>2016-03-14T13:18:31</time>
      </trkpt>
      <trkpt lat="47.225192869" lon="11.055946201">
        <ele>1953.8</ele>
        <time>2016-03-14T13:18:33</time>
      </trkpt>
      <trkpt lat="47.224839488" lon="11.056283154">
        <ele>1942.1</ele>
        <time>2016-03-14T13:18:38</time>
      </trkpt>
      <trkpt lat="47.224525250" lon="11.056697303">
        <ele>1928.8</ele>
        <time>2016-03-14T13:18:47</time>
      </trkpt>
      <trkpt lat="47.224252168" lon="11.056905845">
        <ele>1914.0</ele>
        <time>2016-03-14T13:18:59</time>
      </trkpt>
      <trkpt lat="47.224081513" lon="11.057189237">
        <ele>1906.1</ele>
        <time>2016-03-14T13:19:06</time>
      </trkpt>
      <trkpt lat="47.224010099" lon="11.057215389">
        <ele>1902.3</ele>
        <time>2016-03-14T13:19:10</time>
      </trkpt>
      <trkpt lat="47.223984618" lon="11.057159817">
        <ele>1894.0</ele>
        <time>2016-03-14T13:19:49</time>
      </trkpt>
      <trkpt lat="47.223859308" lon="11.057354864">
        <ele>1891.6</ele>
        <time>2016-03-14T13:19:58</time>
      </trkpt>
      <trkpt lat="47.223750679" lon="11.057359977">
        <ele>1888.6</ele>
        <time>2016-03-14T13:20:02</time>
      </trkpt>
      <trkpt lat="47.223710446" lon="11.057162248">
        <ele>1885.3</ele>
        <time>2016-03-14T13:20:06</time>
      </trkpt>
      <trkpt lat="47.223704327" lon="11.056721862">
        <ele>1876.7</ele>
        <time>2016-03-14T13:20:16</time>
      </trkpt>
      <trkpt lat="47.223730730" lon="11.056392789">
        <ele>1870.5</ele>
        <time>2016-03-14T13:21:36</time>
      </trkpt>
      <trkpt lat="47.223712709" lon="11.056272760">
        <ele>1869.7</ele>
        <time>2016-03-14T13:21:42</time>
      </trkpt>
      <trkpt lat="47.223734502" lon="11.056136219">
        <ele>1868.1</ele>
        <time>2016-03-14T13:21:51</time>
      </trkpt>
      <trkpt lat="47.223716397" lon="11.056022393">
        <ele>1865.9</ele>
        <time>2016-03-14T13:22:03</time>
      </trkpt>
      <trkpt lat="47.223640205" lon="11.056182990">
        <ele>1937.5</ele>
        <time>2016-03-14T13:22:50</time>
      </trkpt>
    </trkseg>
  </trk>
</gpx>
